createdAt,value
2023-03-30T00:01:44.087Z,12.28
2023-03-30T00:04:12.804Z,12.32
2023-03-30T00:06:39.784Z,12.31
2023-03-30T00:09:13.029Z,12.23
2023-03-30T00:11:39.926Z,12.20
2023-03-30T00:14:13.029Z,12.21
2023-03-30T00:16:40.204Z,12.19
2023-03-30T00:19:14.101Z,12.17
2023-03-30T00:21:48.029Z,12.15
2023-03-30T00:24:14.946Z,12.14
2023-03-30T00:26:49.008Z,12.15
2023-03-30T00:29:15.895Z,12.19
2023-03-30T00:31:49.105Z,12.21
2023-03-30T00:34:16.023Z,12.20
2023-03-30T00:36:49.070Z,12.15
2023-03-30T00:39:19.478Z,12.15
2023-03-30T00:41:53.094Z,12.12
2023-03-30T00:45:04.056Z,12.16
2023-03-30T00:47:37.085Z,12.19
2023-03-30T00:50:12.611Z,12.17
2023-03-30T00:52:47.998Z,12.17
2023-03-30T00:55:21.234Z,12.12
2023-03-30T00:57:58.106Z,12.13
2023-03-30T01:00:32.120Z,12.15
2023-03-30T01:03:11.190Z,12.09
2023-03-30T01:05:41.705Z,12.15
2023-03-30T01:08:17.109Z,12.14
2023-03-30T01:10:46.997Z,12.12
2023-03-30T01:13:22.056Z,12.15
2023-03-30T01:16:34.221Z,12.16
2023-03-30T01:19:38.795Z,12.19
2023-03-30T01:22:42.084Z,12.20
2023-03-30T01:25:57.058Z,12.19
2023-03-30T01:28:43.072Z,12.20
2023-03-30T01:31:28.734Z,12.23
2023-03-30T01:34:35.033Z,12.27
2023-03-30T01:37:10.967Z,12.28
2023-03-30T01:40:06.067Z,12.30
2023-03-30T01:42:41.984Z,12.28
2023-03-30T01:45:24.015Z,12.22
2023-03-30T01:47:56.055Z,12.21
2023-03-30T01:50:42.186Z,12.25
2023-03-30T01:53:45.337Z,12.25
2023-03-30T01:56:30.158Z,12.14
2023-03-30T01:59:02.114Z,12.29
2023-03-30T02:01:40.368Z,12.31
2023-03-30T02:04:10.623Z,12.26
2023-03-30T02:06:51.129Z,12.31
2023-03-30T02:09:23.962Z,12.29
2023-03-30T02:12:00.142Z,12.29
2023-03-30T02:14:29.662Z,12.30
2023-03-30T02:17:10.283Z,12.28
2023-03-30T02:19:38.519Z,12.27
2023-03-30T02:22:13.118Z,12.30
2023-03-30T02:24:48.074Z,12.27
2023-03-30T02:27:22.223Z,12.31
2023-03-30T02:29:49.536Z,12.31
2023-03-30T02:32:26.139Z,12.30
2023-03-30T02:35:19.467Z,12.28
2023-03-30T02:38:31.141Z,12.28
2023-03-30T02:41:12.974Z,12.23
2023-03-30T02:44:03.174Z,12.13
2023-03-30T02:46:51.775Z,12.06
2023-03-30T02:49:38.142Z,12.05
2023-03-30T02:52:23.459Z,12.05
2023-03-30T02:55:29.270Z,12.03
2023-03-30T02:58:03.395Z,12.06
2023-03-30T03:00:50.194Z,12.06
2023-03-30T03:03:45.232Z,12.06
2023-03-30T03:06:21.251Z,12.09
2023-03-30T03:08:56.526Z,12.13
2023-03-30T03:11:30.138Z,12.10
2023-03-30T03:13:57.351Z,12.17
2023-03-30T03:16:31.178Z,12.20
2023-03-30T03:18:58.041Z,12.20
2023-03-30T03:21:31.215Z,12.23
2023-03-30T03:23:58.065Z,12.24
2023-03-30T03:26:31.181Z,12.20
2023-03-30T03:28:58.110Z,12.20
2023-03-30T03:31:34.178Z,12.20
2023-03-30T03:34:01.140Z,12.23
2023-03-30T03:36:35.106Z,12.21
2023-03-30T03:39:02.033Z,12.23
2023-03-30T03:41:28.872Z,12.25
2023-03-30T03:44:02.218Z,12.27
2023-03-30T03:46:29.209Z,12.28
2023-03-30T03:49:02.201Z,12.31
2023-03-30T03:51:29.650Z,12.30
2023-03-30T03:54:03.198Z,12.29
2023-03-30T03:56:30.079Z,12.31
2023-03-30T03:59:04.191Z,12.34
2023-03-30T04:01:38.326Z,12.31
2023-03-30T04:04:12.214Z,12.31
2023-03-30T04:06:39.206Z,12.37
2023-03-30T04:09:13.193Z,12.42
2023-03-30T04:11:40.084Z,12.45
2023-03-30T04:14:13.156Z,12.44
2023-03-30T04:16:46.465Z,12.43
2023-03-30T04:19:20.146Z,12.44
2023-03-30T04:21:56.225Z,12.45
2023-03-30T04:24:23.209Z,12.43
2023-03-30T04:26:57.200Z,12.46
2023-03-30T04:29:24.322Z,12.46
2023-03-30T04:31:57.249Z,12.48
2023-03-30T04:34:24.251Z,12.45
2023-03-30T04:36:57.311Z,12.41
2023-03-30T04:39:24.324Z,12.36
2023-03-30T04:41:59.124Z,12.39
2023-03-30T04:44:26.096Z,12.40
2023-03-30T04:46:52.938Z,12.42
2023-03-30T04:49:26.168Z,12.41
2023-03-30T04:51:53.476Z,12.38
2023-03-30T04:54:27.744Z,12.37
2023-03-30T04:56:54.546Z,12.38
2023-03-30T04:59:28.157Z,12.38
2023-03-30T05:02:15.191Z,12.37
2023-03-30T05:04:49.185Z,12.36
2023-03-30T05:07:16.009Z,12.31
2023-03-30T05:09:49.207Z,12.26
2023-03-30T05:12:16.959Z,12.24
2023-03-30T05:14:43.945Z,12.26
2023-03-30T05:17:17.290Z,12.25
2023-03-30T05:19:50.257Z,12.25
2023-03-30T05:22:24.264Z,12.21
2023-03-30T05:24:59.209Z,12.20
2023-03-30T05:27:33.188Z,12.20
2023-03-30T05:30:00.106Z,12.25
2023-03-30T05:32:33.419Z,12.31
2023-03-30T05:35:07.233Z,12.35
2023-03-30T05:37:34.161Z,12.41
2023-03-30T05:40:01.165Z,12.43
2023-03-30T05:42:34.515Z,12.48
2023-03-30T05:45:01.788Z,12.57
2023-03-30T05:47:36.234Z,12.63
2023-03-30T05:50:03.749Z,12.62
2023-03-30T05:52:37.330Z,12.70
2023-03-30T05:55:11.523Z,12.72
2023-03-30T05:57:45.311Z,12.67
2023-03-30T06:00:16.541Z,12.66
2023-03-30T06:02:56.407Z,12.61
2023-03-30T06:05:23.396Z,12.52
2023-03-30T06:07:57.158Z,12.35
2023-03-30T06:10:24.104Z,12.14
2023-03-30T06:12:57.198Z,12.10
2023-03-30T06:15:30.220Z,11.98
2023-03-30T06:17:57.781Z,11.93
2023-03-30T06:20:33.143Z,11.92
2023-03-30T06:23:00.186Z,11.90
2023-03-30T06:25:33.298Z,11.89
2023-03-30T06:28:00.175Z,11.86
2023-03-30T06:30:33.411Z,11.84
2023-03-30T06:33:00.408Z,11.85
2023-03-30T06:35:34.255Z,11.84
2023-03-30T06:38:01.662Z,11.82
2023-03-30T06:40:35.423Z,11.84
2023-03-30T06:43:02.364Z,11.86
2023-03-30T06:45:36.296Z,11.88
2023-03-30T06:48:03.322Z,11.91
2023-03-30T06:50:36.252Z,11.92
2023-03-30T06:53:11.248Z,11.92
2023-03-30T06:55:38.004Z,11.88
2023-03-30T06:58:11.216Z,11.88
2023-03-30T07:00:44.304Z,11.94
2023-03-30T07:03:27.427Z,12.04
2023-03-30T07:05:54.344Z,12.13
2023-03-30T07:08:28.287Z,12.16
2023-03-30T07:10:55.039Z,12.19
2023-03-30T07:13:29.212Z,12.24
2023-03-30T07:15:56.762Z,12.27
2023-03-30T07:18:23.470Z,12.27
2023-03-30T07:20:57.252Z,12.28
2023-03-30T07:23:30.272Z,12.26
2023-03-30T07:26:04.384Z,12.23
2023-03-30T07:28:31.151Z,12.24
2023-03-30T07:31:31.399Z,12.26
2023-03-30T07:34:04.222Z,12.30
2023-03-30T07:36:37.237Z,12.32
2023-03-30T07:39:04.512Z,12.41
2023-03-30T07:41:38.338Z,12.45
2023-03-30T07:44:05.179Z,12.52
2023-03-30T07:46:38.300Z,12.56
2023-03-30T07:49:05.307Z,12.55
2023-03-30T07:51:39.247Z,12.54
2023-03-30T07:54:07.046Z,12.48
2023-03-30T07:56:40.312Z,12.39
2023-03-30T07:59:15.282Z,12.26
2023-03-30T08:01:57.280Z,12.19
2023-03-30T08:04:31.788Z,12.13
2023-03-30T08:07:05.346Z,12.18
2023-03-30T08:09:33.787Z,12.26
2023-03-30T08:12:00.977Z,12.39
2023-03-30T08:14:34.280Z,12.44
2023-03-30T08:17:01.436Z,12.52
2023-03-30T08:19:35.241Z,12.63
2023-03-30T08:22:02.301Z,12.68
2023-03-30T08:24:36.210Z,12.79
2023-03-30T08:27:03.167Z,12.87
2023-03-30T08:29:38.306Z,12.99
2023-03-30T08:32:05.274Z,13.11
2023-03-30T08:34:39.249Z,13.21
2023-03-30T08:37:06.455Z,13.29
2023-03-30T08:39:40.403Z,13.35
2023-03-30T08:42:25.557Z,13.28
2023-03-30T08:45:02.282Z,13.09
2023-03-30T08:47:35.183Z,13.06
2023-03-30T08:50:30.369Z,12.91
2023-03-30T08:52:57.486Z,12.82
2023-03-30T08:55:47.326Z,12.77
2023-03-30T08:58:28.421Z,12.70
2023-03-30T09:01:22.421Z,12.69
2023-03-30T09:04:19.494Z,12.76
2023-03-30T09:07:03.323Z,12.89
2023-03-30T09:09:32.438Z,13.02
2023-03-30T09:12:24.348Z,13.11
2023-03-30T09:15:10.453Z,13.09
2023-03-30T09:18:02.322Z,13.13
2023-03-30T09:20:38.338Z,13.12
2023-03-30T09:23:07.408Z,13.08
2023-03-30T09:25:49.295Z,13.05
2023-03-30T09:28:39.320Z,13.01
2023-03-30T09:31:25.057Z,12.92
2023-03-30T09:34:29.295Z,12.90
2023-03-30T09:37:01.653Z,12.88
2023-03-30T09:39:37.342Z,12.93
2023-03-30T09:42:38.091Z,13.01
2023-03-30T09:45:27.394Z,13.14
2023-03-30T09:47:54.580Z,13.20
2023-03-30T09:50:35.335Z,13.30
2023-03-30T09:53:05.084Z,13.36
2023-03-30T09:55:34.610Z,13.46
2023-03-30T09:58:21.371Z,13.44
2023-03-30T10:01:28.329Z,13.72
2023-03-30T10:04:18.555Z,13.76
2023-03-30T10:07:00.429Z,13.75
2023-03-30T10:09:31.378Z,13.75
2023-03-30T10:12:05.337Z,13.85
2023-03-30T10:14:36.240Z,14.02
2023-03-30T10:17:11.378Z,14.12
2023-03-30T10:19:45.918Z,14.05
2023-03-30T10:22:27.735Z,14.07
2023-03-30T10:24:57.272Z,14.47
2023-03-30T10:27:40.366Z,14.92
2023-03-30T10:30:19.487Z,14.88
2023-03-30T10:32:49.150Z,14.69
2023-03-30T10:35:43.390Z,15.06
2023-03-30T10:38:13.629Z,15.46
2023-03-30T10:40:50.313Z,15.55
2023-03-30T10:43:39.370Z,15.58
2023-03-30T10:46:24.656Z,15.51
2023-03-30T10:49:07.356Z,15.69
2023-03-30T10:51:41.684Z,15.82
2023-03-30T10:54:27.381Z,15.66
2023-03-30T10:57:22.391Z,15.70
2023-03-30T11:00:29.347Z,15.76
2023-03-30T11:03:15.966Z,15.38
2023-03-30T11:05:53.344Z,15.09
2023-03-30T11:08:42.420Z,14.97
2023-03-30T11:11:34.101Z,14.99
2023-03-30T11:14:12.366Z,15.01
2023-03-30T11:16:59.502Z,14.96
2023-03-30T11:19:35.849Z,14.82
2023-03-30T11:22:35.484Z,14.70
2023-03-30T11:25:16.679Z,14.61
2023-03-30T11:27:56.629Z,14.46
2023-03-30T11:30:40.522Z,14.47
2023-03-30T11:33:19.719Z,14.46
2023-03-30T11:36:02.791Z,14.78
2023-03-30T11:38:39.479Z,15.38
2023-03-30T11:41:21.345Z,15.67
2023-03-30T11:43:48.245Z,15.67
2023-03-30T11:46:43.413Z,15.36
2023-03-30T11:49:17.961Z,15.13
2023-03-30T11:52:01.331Z,14.85
2023-03-30T11:54:38.627Z,14.70
2023-03-30T11:57:41.485Z,14.79
2023-03-30T12:00:36.227Z,14.92
2023-03-30T12:03:21.603Z,14.85
2023-03-30T12:06:03.666Z,14.90
2023-03-30T12:09:05.178Z,15.00
2023-03-30T12:12:00.432Z,15.21
2023-03-30T12:14:33.302Z,15.35
2023-03-30T12:17:33.528Z,15.09
2023-03-30T12:20:24.674Z,14.77
2023-03-30T12:23:10.476Z,14.75
2023-03-30T12:25:50.459Z,14.76
2023-03-30T12:28:49.459Z,15.02
2023-03-30T12:31:21.283Z,15.49
2023-03-30T12:33:59.446Z,15.28
2023-03-30T12:36:38.404Z,15.05
2023-03-30T12:39:20.412Z,15.18
2023-03-30T12:41:50.374Z,15.58
2023-03-30T12:44:49.481Z,15.87
2023-03-30T12:47:47.315Z,15.74
2023-03-30T12:50:38.475Z,15.23
2023-03-30T12:53:27.122Z,14.71
2023-03-30T12:56:08.746Z,14.29
2023-03-30T12:58:57.395Z,13.99
2023-03-30T13:01:56.396Z,13.97
2023-03-30T13:04:41.512Z,14.06
2023-03-30T13:07:40.355Z,14.41
2023-03-30T13:10:35.438Z,14.51
2023-03-30T13:13:11.484Z,14.72
2023-03-30T13:16:12.843Z,14.93
2023-03-30T13:19:02.401Z,14.91
2023-03-30T13:21:54.428Z,14.95
2023-03-30T13:24:38.494Z,14.99
2023-03-30T13:27:32.446Z,15.07
2023-03-30T13:30:19.562Z,15.02
2023-03-30T13:32:53.654Z,15.23
2023-03-30T13:35:32.542Z,15.26
2023-03-30T13:38:07.882Z,15.26
2023-03-30T13:41:10.470Z,15.18
2023-03-30T13:44:01.542Z,15.01
2023-03-30T13:46:42.467Z,14.84
2023-03-30T13:49:33.517Z,14.66
2023-03-30T13:52:12.273Z,14.78
2023-03-30T13:54:47.882Z,14.88
2023-03-30T13:57:28.585Z,14.99
2023-03-30T14:00:19.983Z,15.18
2023-03-30T14:02:59.537Z,15.25
2023-03-30T14:05:28.152Z,15.20
2023-03-30T14:07:59.167Z,15.01
2023-03-30T14:10:33.461Z,14.81
2023-03-30T14:13:06.531Z,14.69
2023-03-30T14:15:37.914Z,14.69
2023-03-30T14:18:12.509Z,14.93
2023-03-30T14:20:54.431Z,14.77
2023-03-30T14:23:37.540Z,14.64
2023-03-30T14:26:23.506Z,14.50
2023-03-30T14:28:57.736Z,14.32
2023-03-30T14:31:33.537Z,14.29
2023-03-30T14:34:00.250Z,14.41
2023-03-30T14:36:33.516Z,14.60
2023-03-30T14:39:01.558Z,15.05
2023-03-30T14:41:35.489Z,15.60
2023-03-30T14:44:13.513Z,15.88
2023-03-30T14:46:53.478Z,16.18
2023-03-30T14:49:27.733Z,16.65
2023-03-30T14:52:09.557Z,16.84
2023-03-30T14:54:54.244Z,16.71
2023-03-30T14:57:37.463Z,16.46
2023-03-30T15:00:23.471Z,16.37
2023-03-30T15:03:22.931Z,16.36
2023-03-30T15:06:08.509Z,16.23
2023-03-30T15:08:46.555Z,15.89
2023-03-30T15:11:27.520Z,15.83
2023-03-30T15:14:01.898Z,15.99
2023-03-30T15:16:39.682Z,15.95
2023-03-30T15:19:21.328Z,15.76
2023-03-30T15:21:54.484Z,15.64
2023-03-30T15:24:35.521Z,15.58
2023-03-30T15:27:12.010Z,15.80
2023-03-30T15:29:47.501Z,15.72
2023-03-30T15:32:15.831Z,15.57
2023-03-30T15:35:11.605Z,15.52
2023-03-30T15:37:44.511Z,15.47
2023-03-30T15:40:36.553Z,15.64
2023-03-30T15:43:18.641Z,15.49
2023-03-30T15:46:01.612Z,15.31
2023-03-30T15:48:41.503Z,15.04
2023-03-30T15:51:20.608Z,14.92
2023-03-30T15:53:50.437Z,14.82
2023-03-30T15:56:36.651Z,14.69
2023-03-30T15:59:04.214Z,14.78
2023-03-30T16:02:03.578Z,14.83
2023-03-30T16:04:36.948Z,14.77
2023-03-30T16:07:20.567Z,14.68
2023-03-30T16:09:48.229Z,14.63
2023-03-30T16:12:27.572Z,14.62
2023-03-30T16:14:54.549Z,14.55
2023-03-30T16:17:21.474Z,14.50
2023-03-30T16:19:54.589Z,14.41
2023-03-30T16:22:21.466Z,14.38
2023-03-30T16:24:55.548Z,14.36
2023-03-30T16:27:22.292Z,14.30
2023-03-30T16:29:55.543Z,14.30
2023-03-30T16:32:22.330Z,14.24
2023-03-30T16:34:55.582Z,14.22
2023-03-30T16:37:22.518Z,14.24
2023-03-30T16:39:55.482Z,14.22
2023-03-30T16:42:22.222Z,14.12
2023-03-30T16:44:55.519Z,14.12
2023-03-30T16:47:22.755Z,14.10
2023-03-30T16:49:56.530Z,14.07
2023-03-30T16:52:29.589Z,14.06
2023-03-30T16:54:56.335Z,14.05
2023-03-30T16:57:29.622Z,14.03
2023-03-30T16:59:56.495Z,14.04
2023-03-30T17:02:29.538Z,14.02
2023-03-30T17:05:09.652Z,13.98
2023-03-30T17:07:43.572Z,13.93
2023-03-30T17:10:21.025Z,13.92
2023-03-30T17:12:54.518Z,13.93
2023-03-30T17:15:23.011Z,13.91
2023-03-30T17:17:57.655Z,13.90
2023-03-30T17:20:29.544Z,13.88
2023-03-30T17:23:03.559Z,13.88
2023-03-30T17:25:30.754Z,13.89
2023-03-30T17:28:04.564Z,13.87
2023-03-30T17:30:36.591Z,13.87
2023-03-30T17:33:10.652Z,13.83
2023-03-30T17:35:38.866Z,13.81
2023-03-30T17:38:16.550Z,13.76
2023-03-30T17:40:51.607Z,13.72
2023-03-30T17:43:18.634Z,13.71
2023-03-30T17:45:53.644Z,13.65
2023-03-30T17:48:21.966Z,13.58
2023-03-30T17:50:57.583Z,13.52
2023-03-30T17:53:24.561Z,13.44
2023-03-30T17:55:59.543Z,13.32
2023-03-30T17:58:36.802Z,13.31
2023-03-30T18:01:12.697Z,13.26
2023-03-30T18:03:46.195Z,13.23
2023-03-30T18:06:19.639Z,13.17
2023-03-30T18:08:46.505Z,13.16
2023-03-30T18:11:19.683Z,13.06
2023-03-30T18:13:46.538Z,13.08
2023-03-30T18:16:19.639Z,13.06
2023-03-30T18:18:46.886Z,12.97
2023-03-30T18:21:20.691Z,12.93
2023-03-30T18:23:53.641Z,12.95
2023-03-30T18:26:20.488Z,12.94
2023-03-30T18:28:53.568Z,12.89
2023-03-30T18:31:20.357Z,12.86
2023-03-30T18:33:53.859Z,12.87
2023-03-30T18:36:21.896Z,12.85
2023-03-30T18:38:55.622Z,12.85
2023-03-30T18:41:22.551Z,12.83
2023-03-30T18:43:55.609Z,12.75
2023-03-30T18:46:22.621Z,12.76
2023-03-30T18:48:55.625Z,12.71
2023-03-30T18:51:22.433Z,12.62
2023-03-30T18:53:49.160Z,12.60
2023-03-30T18:56:22.628Z,12.55
2023-03-30T18:58:55.612Z,12.52
2023-03-30T19:01:28.751Z,12.50
2023-03-30T19:04:08.658Z,12.47
2023-03-30T19:06:35.553Z,12.46
2023-03-30T19:09:08.686Z,12.50
2023-03-30T19:11:41.685Z,12.51
2023-03-30T19:14:17.630Z,12.50
2023-03-30T19:16:50.681Z,12.47
2023-03-30T19:19:17.464Z,12.38
2023-03-30T19:21:52.621Z,12.40
2023-03-30T19:24:19.476Z,12.38
2023-03-30T19:26:53.633Z,12.34
2023-03-30T19:29:20.422Z,12.28
2023-03-30T19:31:53.649Z,12.21
2023-03-30T19:34:20.722Z,12.14
2023-03-30T19:36:53.639Z,12.11
2023-03-30T19:39:21.023Z,12.12
2023-03-30T19:41:54.711Z,12.11
2023-03-30T19:44:22.394Z,12.10
2023-03-30T19:46:55.656Z,12.05
2023-03-30T19:49:28.662Z,12.06
2023-03-30T19:51:55.429Z,12.01
2023-03-30T19:54:28.620Z,11.95
2023-03-30T19:56:55.503Z,11.89
2023-03-30T19:59:28.715Z,11.84
2023-03-30T20:01:56.189Z,11.78
2023-03-30T20:04:36.639Z,11.77
2023-03-30T20:07:03.710Z,11.72
2023-03-30T20:09:37.656Z,11.77
2023-03-30T20:12:11.682Z,11.77
2023-03-30T20:14:38.861Z,11.72
2023-03-30T20:17:16.713Z,11.82
2023-03-30T20:19:43.495Z,11.84
2023-03-30T20:22:16.651Z,11.84
2023-03-30T20:24:45.146Z,11.84
2023-03-30T20:27:18.694Z,11.83
2023-03-30T20:29:45.432Z,11.83
2023-03-30T20:32:18.645Z,11.83
2023-03-30T20:34:46.354Z,11.80
2023-03-30T20:37:19.661Z,11.78
2023-03-30T20:39:46.754Z,11.78
2023-03-30T20:42:20.647Z,11.78
2023-03-30T20:44:50.563Z,11.77
2023-03-30T20:47:24.762Z,11.73
2023-03-30T20:49:53.960Z,11.71
2023-03-30T20:52:28.739Z,11.69
2023-03-30T20:55:02.681Z,11.61
2023-03-30T20:57:35.626Z,11.56
2023-03-30T21:00:02.511Z,11.56
2023-03-30T21:02:35.883Z,11.55
2023-03-30T21:05:16.779Z,11.56
2023-03-30T21:07:53.671Z,11.55
2023-03-30T21:10:26.751Z,11.55
2023-03-30T21:12:53.505Z,11.50
2023-03-30T21:15:26.704Z,11.47
2023-03-30T21:17:53.442Z,11.44
2023-03-30T21:20:28.826Z,11.38
2023-03-30T21:22:55.590Z,11.32
2023-03-30T21:25:28.770Z,11.25
2023-03-30T21:27:55.807Z,11.23
2023-03-30T21:30:28.749Z,11.20
2023-03-30T21:33:01.747Z,11.15
2023-03-30T21:35:29.154Z,11.13
2023-03-30T21:38:04.030Z,11.09
2023-03-30T21:40:31.137Z,11.04
2023-03-30T21:43:04.779Z,11.04
2023-03-30T21:45:31.513Z,11.02
2023-03-30T21:48:04.791Z,11.03
2023-03-30T21:50:31.612Z,11.02
2023-03-30T21:53:05.741Z,11.00
2023-03-30T21:55:32.536Z,11.01
2023-03-30T21:58:22.708Z,10.99
2023-03-30T22:01:08.930Z,11.00
2023-03-30T22:03:44.915Z,11.00
2023-03-30T22:06:14.128Z,11.04
2023-03-30T22:08:41.418Z,11.07
2023-03-30T22:11:24.695Z,11.09
2023-03-30T22:13:58.679Z,11.13
2023-03-30T22:16:33.438Z,11.14
2023-03-30T22:19:06.722Z,11.15
2023-03-30T22:21:40.126Z,11.16
2023-03-30T22:24:14.674Z,11.19
2023-03-30T22:26:47.745Z,11.18
2023-03-30T22:29:20.780Z,11.19
2023-03-30T22:31:47.710Z,11.16
2023-03-30T22:34:20.774Z,11.15
2023-03-30T22:36:53.627Z,11.13
2023-03-30T22:39:20.465Z,11.08
2023-03-30T22:41:53.680Z,11.05
2023-03-30T22:44:21.652Z,11.01
2023-03-30T22:46:54.684Z,11.00
2023-03-30T22:49:21.445Z,10.99
2023-03-30T22:51:56.756Z,10.99
2023-03-30T22:54:23.767Z,10.99
2023-03-30T22:56:56.759Z,11.00
2023-03-30T22:59:23.666Z,10.99
2023-03-30T23:01:57.675Z,10.96
2023-03-30T23:04:31.123Z,10.97
2023-03-30T23:07:04.746Z,10.95
2023-03-30T23:09:32.364Z,10.93
2023-03-30T23:12:06.762Z,10.91
2023-03-30T23:14:41.964Z,10.80
2023-03-30T23:17:15.781Z,10.81
2023-03-30T23:19:52.744Z,10.77
2023-03-30T23:22:22.301Z,10.71
2023-03-30T23:24:55.719Z,10.68
2023-03-30T23:27:23.011Z,10.63
2023-03-30T23:29:56.740Z,10.59
2023-03-30T23:32:29.805Z,10.55
2023-03-30T23:34:56.590Z,10.50
2023-03-30T23:37:29.829Z,10.47
2023-03-30T23:39:59.070Z,10.42
2023-03-30T23:42:32.771Z,10.38
2023-03-30T23:44:59.588Z,10.35
2023-03-30T23:47:33.824Z,10.33
2023-03-30T23:50:07.789Z,10.26
2023-03-30T23:52:40.789Z,10.27
2023-03-30T23:55:14.791Z,10.23
2023-03-30T23:57:41.742Z,10.15
